Time;durP1;ratioP1;P1;durP2;ratioP2;P2;SDS_P1;SDS_P2;PMS_P1;PMS_P2;Temp;Humidity;BMP_temperature;BMP_pressure;BME280_temperature;BME280_humidity;BME280_pressure;Samples;Min_cycle;Max_cycle;Signal;HPM_P1;HPM_P2
2023/01/31 00:01:03;;;;;;;6.78;4.95;;;;;;;-2.25;89.74;97378.78;7345757;19;20038;-72
2023/01/31 00:03:27;;;;;;;8.18;4.78;;;;;;;-2.27;89.79;97380.66;7344652;19;20014;-75
2023/01/31 00:05:52;;;;;;;10.45;5.60;;;;;;;-2.29;89.77;97372.09;7347309;19;20048;-77
2023/01/31 00:08:17;;;;;;;10.57;6.15;;;;;;;-2.24;89.61;97385.69;7344990;19;20022;-75
2023/01/31 00:10:42;;;;;;;9.82;6.47;;;;;;;-2.31;89.69;97385.22;7345510;19;20099;-76
2023/01/31 00:13:07;;;;;;;9.18;5.90;;;;;;;-2.20;89.36;97374.16;7349289;19;20017;-75
2023/01/31 00:15:31;;;;;;;8.20;5.03;;;;;;;-2.22;89.46;97379.47;7348113;19;20022;-79
2023/01/31 00:17:56;;;;;;;9.52;5.53;;;;;;;-2.24;89.43;97370.03;7348862;19;20018;-75
2023/01/31 00:20:20;;;;;;;7.93;5.05;;;;;;;-2.22;89.54;97376.84;7345268;19;20423;-73
2023/01/31 00:22:45;;;;;;;8.32;5.28;;;;;;;-2.22;89.52;97383.84;7347740;19;20014;-79
2023/01/31 00:25:10;;;;;;;8.63;5.30;;;;;;;-2.20;89.47;97392.44;7349498;19;20044;-79
2023/01/31 00:27:34;;;;;;;7.15;4.22;;;;;;;-2.16;89.53;97386.13;7348954;19;20003;-77
2023/01/31 00:29:59;;;;;;;5.95;4.35;;;;;;;-2.09;89.54;97387.44;7348166;19;20358;-77
2023/01/31 00:32:25;;;;;;;8.57;4.82;;;;;;;-2.08;89.51;97378.69;7347641;19;20019;-76
2023/01/31 00:34:50;;;;;;;11.35;6.32;;;;;;;-2.16;89.33;97378.28;7339507;19;20015;-69
2023/01/31 00:37:15;;;;;;;11.27;5.57;;;;;;;-2.11;89.50;97380.63;7337180;19;20029;-75
2023/01/31 00:39:39;;;;;;;9.50;5.88;;;;;;;-2.20;89.29;97382.00;7339445;19;20019;-70
2023/01/31 00:42:04;;;;;;;8.95;5.70;;;;;;;-2.18;89.30;97385.38;7337512;19;20021;-71
2023/01/31 00:44:28;;;;;;;8.38;5.55;;;;;;;-2.15;89.37;97382.59;7334763;19;20022;-70
2023/01/31 00:46:55;;;;;;;7.95;5.47;;;;;;;-2.13;89.31;97388.53;7334362;19;20022;-69
2023/01/31 00:49:20;;;;;;;10.10;5.95;;;;;;;-2.15;89.04;97400.88;7335216;19;20024;-73
2023/01/31 00:51:44;;;;;;;5.15;3.53;;;;;;;-2.16;88.89;97393.97;7346242;19;20465;-75
2023/01/31 00:54:10;;;;;;;8.55;5.65;;;;;;;-2.13;88.73;97401.59;7345950;19;20348;-69
2023/01/31 00:56:34;;;;;;;6.65;4.43;;;;;;;-2.11;88.94;97394.53;7344884;19;20052;-76
2023/01/31 00:58:59;;;;;;;9.85;5.25;;;;;;;-2.09;88.67;97399.66;7342378;19;20006;-69
2023/01/31 01:01:26;;;;;;;9.10;4.97;;;;;;;-2.05;88.39;97401.19;7343606;19;20474;-73
2023/01/31 01:03:52;;;;;;;7.72;4.90;;;;;;;-2.00;88.48;97402.59;7342047;19;20010;-72
2023/01/31 01:06:17;;;;;;;9.07;5.70;;;;;;;-2.02;88.18;97404.44;7343005;19;20036;-73
2023/01/31 01:08:42;;;;;;;10.88;6.43;;;;;;;-1.97;88.09;97393.75;7347461;19;20362;-77
2023/01/31 01:11:14;;;;;;;8.50;5.10;;;;;;;-1.95;87.88;97408.41;7352231;19;20014;-78
2023/01/31 01:13:39;;;;;;;8.93;5.20;;;;;;;-2.08;87.72;97396.97;7350747;19;20030;-78
2023/01/31 01:16:06;;;;;;;10.52;4.75;;;;;;;-2.04;87.92;97413.31;7348549;19;20014;-79
2023/01/31 01:18:34;;;;;;;7.43;4.38;;;;;;;-2.00;87.75;97420.84;7345040;19;20018;-74
2023/01/31 01:21:04;;;;;;;9.55;5.30;;;;;;;-2.04;87.85;97414.16;7345545;19;20007;-74
2023/01/31 01:23:29;;;;;;;10.45;5.90;;;;;;;-2.05;87.87;97407.25;7346360;19;20010;-71
2023/01/31 01:25:54;;;;;;;9.07;6.30;;;;;;;-2.02;87.50;97400.97;7344182;19;20021;-70
2023/01/31 01:28:19;;;;;;;8.73;5.35;;;;;;;-2.01;87.71;97402.66;7340561;19;20026;-71
2023/01/31 01:30:43;;;;;;;7.43;4.85;;;;;;;-1.93;87.46;97403.09;7340567;19;20026;-70
2023/01/31 01:33:09;;;;;;;8.05;4.82;;;;;;;-1.99;87.77;97408.66;7344583;19;20007;-69
2023/01/31 01:35:35;;;;;;;10.00;6.32;;;;;;;-2.07;87.75;97406.47;7342917;19;20044;-71
2023/01/31 01:38:01;;;;;;;12.35;6.40;;;;;;;-1.99;87.42;97417.31;7343597;19;20022;-70
2023/01/31 01:40:34;;;;;;;6.32;3.95;;;;;;;-2.00;87.35;97415.63;7343455;19;20084;-67
2023/01/31 01:42:58;;;;;;;10.13;7.05;;;;;;;-2.02;87.43;97422.72;7340329;19;20026;-72
2023/01/31 01:45:23;;;;;;;11.07;5.55;;;;;;;-2.00;87.53;97413.03;7343215;19;20022;-70
2023/01/31 01:47:54;;;;;;;10.57;6.97;;;;;;;-2.15;87.02;97416.53;7342836;19;20078;-70
2023/01/31 01:50:26;;;;;;;9.18;6.22;;;;;;;-2.08;87.10;97407.41;7349482;19;20035;-70
2023/01/31 01:52:56;;;;;;;7.32;5.05;;;;;;;-1.97;87.05;97415.47;7347821;19;20018;-69
2023/01/31 01:55:32;;;;;;;8.48;5.43;;;;;;;-1.92;87.11;97410.81;7348766;19;20015;-67
2023/01/31 01:58:03;;;;;;;7.90;5.20;;;;;;;-1.93;86.95;97397.88;7348978;19;20548;-69
2023/01/31 02:00:30;;;;;;;11.63;7.25;;;;;;;-2.05;86.68;97399.41;7348028;19;20041;-68
2023/01/31 02:02:57;;;;;;;10.05;5.75;;;;;;;-2.02;86.51;97404.44;7349797;19;20017;-67
2023/01/31 02:05:33;;;;;;;9.93;6.07;;;;;;;-1.97;86.51;97394.59;7349023;19;20019;-69
2023/01/31 02:07:59;;;;;;;10.05;5.95;;;;;;;-1.94;86.46;97404.88;7349489;19;20464;-69
2023/01/31 02:10:30;;;;;;;10.30;6.53;;;;;;;-2.00;86.12;97394.75;7347332;19;20036;-68
2023/01/31 02:12:55;;;;;;;9.35;5.75;;;;;;;-1.93;85.87;97396.09;7349033;19;20021;-71
2023/01/31 02:15:21;;;;;;;10.55;6.60;;;;;;;-2.01;85.72;97393.06;7348572;19;20018;-68
2023/01/31 02:17:46;;;;;;;11.40;6.25;;;;;;;-2.00;85.54;97391.31;7349111;19;20025;-69
2023/01/31 02:20:26;;;;;;;11.30;6.68;;;;;;;-2.04;85.25;97389.81;7348467;19;20015;-69
2023/01/31 02:23:20;;;;;;;9.38;5.63;;;;;;;-2.00;85.41;97384.31;7348429;19;20102;-68
2023/01/31 02:25:53;;;;;;;9.95;6.22;;;;;;;-1.93;85.31;97385.66;7348208;19;20472;-71
2023/01/31 02:28:52;;;;;;;7.78;5.53;;;;;;;-1.97;85.09;97384.16;7349180;19;20115;-69
2023/01/31 02:31:41;;;;;;;10.48;5.70;;;;;;;-1.94;85.07;97381.38;7349036;19;20021;-73
2023/01/31 02:34:06;;;;;;;11.32;5.95;;;;;;;-1.98;85.16;97384.22;7347883;19;20041;-77
2023/01/31 02:36:57;;;;;;;12.20;6.82;;;;;;;-1.85;85.00;97387.81;7352084;19;20018;-78
2023/01/31 02:39:22;;;;;;;10.52;5.75;;;;;;;-1.84;84.81;97392.97;7354941;19;20455;-79
2023/01/31 02:42:10;;;;;;;10.90;6.35;;;;;;;-1.97;84.43;97384.16;7350131;19;20441;-70
2023/01/31 02:44:58;;;;;;;11.32;6.63;;;;;;;-1.85;84.57;97380.81;7345445;19;20022;-73
2023/01/31 02:47:57;;;;;;;11.57;7.20;;;;;;;-1.86;84.50;97389.59;7348652;19;20018;-72
2023/01/31 02:50:44;;;;;;;11.30;6.20;;;;;;;-1.86;84.49;97401.81;7347792;19;20010;-73
2023/01/31 02:53:20;;;;;;;7.32;4.32;;;;;;;-1.73;84.51;97388.88;7348810;19;20007;-78
2023/01/31 02:56:18;;;;;;;8.63;5.32;;;;;;;-1.75;84.27;97388.13;7351145;19;20022;-87
2023/01/31 02:59:09;;;;;;;11.45;5.97;;;;;;;-1.87;84.17;97398.34;7361311;19;20330;-84
2023/01/31 03:01:38;;;;;;;8.77;5.00;;;;;;;-1.87;83.92;97407.94;7343692;19;20031;-69
2023/01/31 03:04:05;;;;;;;11.95;6.25;;;;;;;-1.96;83.80;97396.28;7348234;19;20521;-74
2023/01/31 03:06:32;;;;;;;11.07;6.50;;;;;;;-1.88;83.67;97408.88;7348482;19;20071;-73
2023/01/31 03:09:35;;;;;;;9.10;6.18;;;;;;;-1.84;83.49;97397.34;7345835;19;20019;-72
2023/01/31 03:12:26;;;;;;;10.13;6.90;;;;;;;-1.79;83.51;97410.94;7343165;19;20041;-64
2023/01/31 03:15:07;;;;;;;9.50;5.50;;;;;;;-1.74;83.53;97406.31;7343249;19;20006;-73
2023/01/31 03:17:57;;;;;;;8.82;4.97;;;;;;;-1.75;83.27;97409.88;7345863;19;20334;-76
2023/01/31 03:20:42;;;;;;;7.60;4.78;;;;;;;-1.75;83.26;97407.25;7347090;19;20018;-75
2023/01/31 03:23:18;;;;;;;11.40;7.20;;;;;;;-1.80;83.19;97405.81;7348729;19;20527;-76
2023/01/31 03:25:46;;;;;;;11.93;8.05;;;;;;;-1.85;83.02;97413.94;7346373;19;20018;-76
2023/01/31 03:28:16;;;;;;;10.07;6.40;;;;;;;-1.80;82.93;97400.59;7345887;19;20018;-74
2023/01/31 03:31:00;;;;;;;10.45;5.45;;;;;;;-1.71;83.00;97418.38;7343265;19;20007;-71
2023/01/31 03:33:29;;;;;;;9.07;4.45;;;;;;;-1.64;83.01;97425.75;7345263;19;20050;-73
2023/01/31 03:36:05;;;;;;;7.82;5.82;;;;;;;-1.68;82.92;97429.47;7350881;19;20010;-70
2023/01/31 03:38:34;;;;;;;12.35;6.55;;;;;;;-1.78;82.89;97428.31;7348905;19;20096;-69
2023/01/31 03:41:08;;;;;;;9.05;5.65;;;;;;;-1.56;83.01;97433.13;7349382;19;20006;-69
2023/01/31 03:43:54;;;;;;;14.95;9.02;;;;;;;-1.81;82.87;97425.06;7345911;19;20022;-71
2023/01/31 03:46:28;;;;;;;14.10;6.10;;;;;;;-1.75;82.95;97437.75;7344743;19;20015;-71
2023/01/31 03:48:57;;;;;;;9.30;6.30;;;;;;;-1.79;82.85;97428.41;7346584;19;20285;-72
2023/01/31 03:51:28;;;;;;;8.48;5.75;;;;;;;-1.75;82.78;97429.91;7343878;19;20041;-72
2023/01/31 03:53:59;;;;;;;9.98;6.18;;;;;;;-1.77;82.68;97432.59;7345228;19;20400;-69
2023/01/31 03:56:35;;;;;;;10.98;5.93;;;;;;;-1.69;82.91;97437.41;7344679;19;20019;-72
2023/01/31 03:59:08;;;;;;;10.10;6.10;;;;;;;-1.66;82.72;97432.81;7345622;19;20497;-69
2023/01/31 04:01:36;;;;;;;10.55;5.75;;;;;;;-1.74;82.72;97436.81;7345789;19;20011;-70
2023/01/31 04:04:07;;;;;;;10.82;8.25;;;;;;;-1.74;82.64;97426.38;7345372;19;20025;-70
2023/01/31 04:06:32;;;;;;;11.85;6.38;;;;;;;-1.65;82.69;97436.28;7346397;19;20027;-70
2023/01/31 04:08:56;;;;;;;13.82;6.43;;;;;;;-1.60;82.47;97434.25;7350445;19;20026;-70
2023/01/31 04:11:24;;;;;;;11.52;6.57;;;;;;;-1.60;82.46;97436.88;7352553;19;20015;-70
2023/01/31 04:13:49;;;;;;;10.75;6.07;;;;;;;-1.64;82.42;97437.97;7350787;19;20070;-70
2023/01/31 04:16:14;;;;;;;10.98;7.15;;;;;;;-1.74;82.39;97440.28;7350702;19;20010;-72
2023/01/31 04:18:38;;;;;;;12.70;7.35;;;;;;;-1.73;82.48;97439.34;7350245;19;20010;-69
2023/01/31 04:21:03;;;;;;;12.63;7.47;;;;;;;-1.70;82.55;97443.56;7344449;19;20014;-70
2023/01/31 04:23:28;;;;;;;13.32;7.18;;;;;;;-1.59;82.41;97444.63;7345629;19;20163;-73
2023/01/31 04:25:53;;;;;;;12.02;6.63;;;;;;;-1.69;82.54;97442.63;7345591;19;20042;-74
2023/01/31 04:28:18;;;;;;;12.98;6.18;;;;;;;-1.66;82.60;97447.66;7346725;19;20522;-74
2023/01/31 04:30:43;;;;;;;11.50;7.13;;;;;;;-1.64;82.67;97444.03;7343104;19;20457;-72
2023/01/31 04:33:07;;;;;;;11.90;6.88;;;;;;;-1.66;82.59;97460.72;7344608;19;20078;-70
2023/01/31 04:35:33;;;;;;;13.15;8.70;;;;;;;-1.72;82.67;97448.03;7343500;19;20006;-72
2023/01/31 04:37:58;;;;;;;13.15;6.35;;;;;;;-1.64;82.58;97459.72;7345326;19;20018;-72
2023/01/31 04:40:22;;;;;;;12.25;7.10;;;;;;;-1.70;82.64;97457.47;7345342;19;20010;-73
2023/01/31 04:42:49;;;;;;;11.07;6.97;;;;;;;-1.71;82.89;97462.78;7341495;19;20006;-69
2023/01/31 04:45:14;;;;;;;11.20;7.03;;;;;;;-1.66;82.86;97466.78;7342441;19;20070;-71
2023/01/31 04:47:39;;;;;;;11.60;6.65;;;;;;;-1.68;82.94;97476.47;7342253;19;20076;-70
2023/01/31 04:50:04;;;;;;;11.80;6.63;;;;;;;-1.54;82.77;97473.94;7343097;19;20019;-70
2023/01/31 04:52:29;;;;;;;11.80;8.35;;;;;;;-1.67;82.53;97493.00;7342965;19;20006;-70
2023/01/31 04:54:53;;;;;;;10.75;7.63;;;;;;;-1.63;82.72;97471.84;7343242;19;20025;-70
2023/01/31 04:57:18;;;;;;;10.13;7.25;;;;;;;-1.64;83.03;97479.75;7345934;19;20015;-71
2023/01/31 04:59:42;;;;;;;10.90;6.22;;;;;;;-1.58;83.04;97472.41;7343228;19;20496;-69
2023/01/31 05:02:07;;;;;;;12.98;8.80;;;;;;;-1.60;82.75;97476.06;7344882;19;20006;-70
2023/01/31 05:04:32;;;;;;;11.50;6.97;;;;;;;-1.68;82.93;97465.19;7341422;19;20015;-69
2023/01/31 05:06:56;;;;;;;12.40;7.13;;;;;;;-1.64;83.03;97474.53;7344306;19;20021;-70
2023/01/31 05:09:21;;;;;;;11.80;7.68;;;;;;;-1.50;83.07;97472.00;7343989;19;20498;-72
2023/01/31 05:11:46;;;;;;;14.30;9.00;;;;;;;-1.52;82.79;97471.22;7342382;19;20010;-71
2023/01/31 05:14:12;;;;;;;13.32;7.57;;;;;;;-1.53;82.87;97477.38;7342696;19;20041;-70
2023/01/31 05:16:37;;;;;;;14.70;7.65;;;;;;;-1.57;82.72;97476.72;7344782;19;20010;-71
2023/01/31 05:19:01;;;;;;;14.18;8.63;;;;;;;-1.59;82.91;97472.53;7343439;19;20038;-71
2023/01/31 05:21:26;;;;;;;12.93;6.35;;;;;;;-1.55;83.12;97474.84;7343551;19;19998;-71
2023/01/31 05:23:51;;;;;;;11.95;7.13;;;;;;;-1.55;83.03;97482.69;7341548;19;20011;-71
2023/01/31 05:26:15;;;;;;;14.85;8.00;;;;;;;-1.57;82.98;97487.16;7343977;19;20465;-71
2023/01/31 05:28:41;;;;;;;12.18;8.35;;;;;;;-1.54;82.99;97480.91;7341112;19;20018;-75
2023/01/31 05:31:07;;;;;;;11.82;6.90;;;;;;;-1.51;82.97;97485.97;7340899;19;20047;-72
2023/01/31 05:33:32;;;;;;;12.80;7.25;;;;;;;-1.47;82.97;97495.34;7344469;19;20354;-70
2023/01/31 05:35:57;;;;;;;12.95;7.07;;;;;;;-1.48;82.99;97491.03;7342927;19;20349;-70
2023/01/31 05:38:21;;;;;;;10.15;6.10;;;;;;;-1.47;83.09;97492.72;7345191;19;20470;-73
2023/01/31 05:40:48;;;;;;;10.93;6.68;;;;;;;-1.42;83.06;97490.66;7343465;19;20473;-73
2023/01/31 05:43:12;;;;;;;11.10;6.28;;;;;;;-1.47;82.95;97488.31;7342409;19;20333;-73
2023/01/31 05:45:37;;;;;;;13.63;6.38;;;;;;;-1.32;82.88;97491.81;7343248;19;20338;-73
2023/01/31 05:48:02;;;;;;;12.75;7.75;;;;;;;-1.43;82.97;97488.97;7342925;19;20123;-74
2023/01/31 05:50:27;;;;;;;13.02;7.55;;;;;;;-1.43;82.92;97488.97;7343259;19;20017;-71
2023/01/31 05:52:53;;;;;;;13.90;8.40;;;;;;;-1.40;82.95;97494.03;7343867;19;20069;-72
2023/01/31 05:55:18;;;;;;;11.50;6.82;;;;;;;-1.31;82.84;97493.50;7344037;19;20037;-72
2023/01/31 05:57:43;;;;;;;11.43;6.90;;;;;;;-1.37;82.92;97483.41;7343863;19;20392;-72
2023/01/31 06:00:08;;;;;;;13.60;7.25;;;;;;;-1.38;82.80;97491.34;7342726;19;20424;-74
2023/01/31 06:02:36;;;;;;;10.75;5.32;;;;;;;-1.32;82.81;97490.97;7340770;19;20035;-73
2023/01/31 06:05:01;;;;;;;13.48;9.98;;;;;;;-1.42;82.76;97501.13;7342288;19;20015;-74
2023/01/31 06:07:27;;;;;;;12.45;7.40;;;;;;;-1.46;82.87;97504.84;7344750;19;20014;-73
2023/01/31 06:09:52;;;;;;;16.40;8.07;;;;;;;-1.52;83.22;97510.41;7341025;19;20014;-75
2023/01/31 06:12:16;;;;;;;12.73;7.10;;;;;;;-1.46;83.24;97520.50;7343368;19;20014;-73
2023/01/31 06:14:41;;;;;;;11.07;7.65;;;;;;;-1.36;83.09;97516.47;7345528;19;20014;-73
2023/01/31 06:17:06;;;;;;;14.18;8.13;;;;;;;-1.35;83.05;97514.66;7341384;19;20010;-73
2023/01/31 06:19:30;;;;;;;14.38;7.60;;;;;;;-1.38;83.11;97510.47;7342081;19;20031;-73
2023/01/31 06:21:55;;;;;;;9.43;5.57;;;;;;;-1.45;83.11;97516.97;7341186;19;20018;-74
2023/01/31 06:24:20;;;;;;;16.50;8.00;;;;;;;-1.48;83.09;97511.94;7340814;19;20007;-72
2023/01/31 06:26:44;;;;;;;16.35;9.00;;;;;;;-1.48;83.35;97514.56;7344127;19;20019;-73
2023/01/31 06:29:09;;;;;;;15.18;9.63;;;;;;;-1.44;83.35;97523.88;7342268;19;20030;-72
2023/01/31 06:31:33;;;;;;;12.02;7.30;;;;;;;-1.28;83.20;97527.31;7344646;19;20465;-75
2023/01/31 06:33:58;;;;;;;16.40;10.27;;;;;;;-1.38;83.21;97527.94;7344461;19;20046;-72
2023/01/31 06:36:23;;;;;;;13.57;7.93;;;;;;;-1.34;83.15;97534.66;7349912;19;20086;-73
2023/01/31 06:38:49;;;;;;;12.68;7.28;;;;;;;-1.25;83.22;97535.00;7349951;19;20018;-75
2023/01/31 06:41:14;;;;;;;14.68;7.50;;;;;;;-1.23;82.94;97550.56;7349318;19;20010;-74
2023/01/31 06:43:38;;;;;;;16.13;8.27;;;;;;;-1.24;82.93;97544.47;7345918;19;20011;-72
2023/01/31 06:46:03;;;;;;;12.30;7.55;;;;;;;-1.28;82.95;97555.22;7347687;19;20090;-71
2023/01/31 06:48:28;;;;;;;11.90;6.90;;;;;;;-1.13;82.84;97547.31;7348525;19;20117;-73
2023/01/31 06:50:53;;;;;;;14.63;6.93;;;;;;;-1.13;82.75;97544.69;7346912;19;20002;-74
2023/01/31 06:53:18;;;;;;;7.88;4.20;;;;;;;-1.07;82.73;97548.75;7348017;19;20328;-72
2023/01/31 06:55:42;;;;;;;14.10;8.30;;;;;;;-1.20;82.69;97547.78;7350205;19;20412;-74
2023/01/31 06:58:07;;;;;;;15.85;9.43;;;;;;;-1.18;82.64;97554.59;7347275;19;20524;-73
2023/01/31 07:00:31;;;;;;;12.35;8.23;;;;;;;-1.13;82.72;97552.53;7348019;19;20006;-71
2023/01/31 07:02:56;;;;;;;16.10;8.60;;;;;;;-1.30;82.72;97557.06;7347067;19;20017;-73
2023/01/31 07:05:21;;;;;;;11.93;6.85;;;;;;;-1.31;82.73;97566.69;7348138;19;20051;-73
2023/01/31 07:07:46;;;;;;;15.45;7.70;;;;;;;-1.18;82.97;97552.00;7348756;19;20405;-72
2023/01/31 07:10:12;;;;;;;12.20;7.20;;;;;;;-1.12;82.80;97569.06;7346529;19;20344;-72
2023/01/31 07:12:39;;;;;;;12.40;7.53;;;;;;;-1.14;82.64;97569.19;7351910;19;20032;-72
2023/01/31 07:15:04;;;;;;;14.85;9.43;;;;;;;-1.01;82.38;97573.69;7348050;19;20518;-73
2023/01/31 07:17:29;;;;;;;13.65;7.82;;;;;;;-1.05;82.31;97566.97;7347123;19;20346;-73
2023/01/31 07:19:54;;;;;;;15.00;8.38;;;;;;;-1.08;82.37;97560.13;7351156;19;20329;-74
2023/01/31 07:22:18;;;;;;;16.77;10.43;;;;;;;-1.08;82.29;97567.97;7347150;19;20772;-74
2023/01/31 07:24:43;;;;;;;16.10;8.88;;;;;;;-1.00;82.21;97560.53;7349517;19;20007;-73
2023/01/31 07:27:08;;;;;;;14.25;7.97;;;;;;;-0.92;82.10;97571.41;7347855;19;20093;-73
2023/01/31 07:29:32;;;;;;;15.38;9.68;;;;;;;-1.04;82.13;97574.72;7348426;19;20010;-72
2023/01/31 07:31:57;;;;;;;12.10;7.15;;;;;;;-0.99;81.99;97577.06;7348917;19;20504;-71
2023/01/31 07:34:21;;;;;;;13.68;8.55;;;;;;;-0.98;81.97;97583.97;7349341;19;20489;-72
2023/01/31 07:36:46;;;;;;;14.82;7.32;;;;;;;-0.98;82.05;97592.66;7350346;19;20006;-73
2023/01/31 07:39:12;;;;;;;17.52;8.68;;;;;;;-0.98;82.27;97586.59;7351247;19;20011;-75
2023/01/31 07:41:36;;;;;;;12.45;7.88;;;;;;;-0.92;82.09;97583.63;7352967;19;20019;-72
2023/01/31 07:44:07;;;;;;;13.38;8.68;;;;;;;-0.91;82.23;97591.41;7346664;19;20010;-71
2023/01/31 07:46:31;;;;;;;16.70;8.90;;;;;;;-0.87;82.04;97590.28;7348173;19;20409;-72
2023/01/31 07:48:56;;;;;;;5.45;4.72;;;;;;;-0.58;81.94;97611.28;7348664;19;20047;-72
2023/01/31 07:51:21;;;;;;;11.98;7.82;;;;;;;-0.77;81.62;97598.41;7344297;19;19998;-72
2023/01/31 07:53:45;;;;;;;14.00;9.15;;;;;;;-0.78;81.63;97608.03;7348771;19;20011;-72
2023/01/31 07:56:16;;;;;;;12.20;7.65;;;;;;;-0.84;81.74;97610.19;7345284;19;20023;-73
2023/01/31 07:58:42;;;;;;;10.50;6.00;;;;;;;-0.71;81.85;97608.53;7346329;19;20128;-73
2023/01/31 08:03:56;;;;;;;13.18;8.93;;;;;;;-0.74;81.57;97609.56;7347736;19;20019;-70
2023/01/31 08:06:21;;;;;;;11.35;7.57;;;;;;;-0.64;81.57;97609.84;7347574;19;20030;-70
2023/01/31 08:08:46;;;;;;;14.73;8.25;;;;;;;-0.74;81.34;97614.78;7349444;19;20010;-71
2023/01/31 08:11:10;;;;;;;12.68;7.75;;;;;;;-0.67;81.23;97615.25;7345231;19;20085;-70
2023/01/31 08:13:36;;;;;;;11.80;7.90;;;;;;;-0.64;81.16;97617.69;7346498;19;20018;-73
2023/01/31 08:16:04;;;;;;;12.43;7.97;;;;;;;-0.54;81.13;97626.69;7349763;19;20017;-72
2023/01/31 08:18:29;;;;;;;14.70;9.05;;;;;;;-0.69;80.93;97627.63;7346129;19;20032;-72
2023/01/31 08:20:56;;;;;;;13.30;7.13;;;;;;;-0.62;80.94;97634.16;7349252;19;20011;-72
2023/01/31 08:23:20;;;;;;;10.10;6.95;;;;;;;-0.71;80.76;97623.41;7348431;19;20041;-74
2023/01/31 08:25:45;;;;;;;13.70;9.10;;;;;;;-0.88;81.08;97646.13;7347371;19;20011;-74
2023/01/31 08:28:10;;;;;;;13.27;8.15;;;;;;;-0.80;81.05;97630.00;7348954;19;20625;-73
2023/01/31 08:30:39;;;;;;;12.82;8.10;;;;;;;-0.74;81.08;97629.63;7345252;19;20013;-74
2023/01/31 08:33:04;;;;;;;13.15;8.00;;;;;;;-0.68;81.05;97631.06;7347819;19;20117;-74
2023/01/31 08:35:29;;;;;;;16.33;9.20;;;;;;;-0.73;80.97;97633.94;7346044;19;20057;-71
2023/01/31 08:37:53;;;;;;;8.38;5.15;;;;;;;-0.66;81.07;97637.03;7349519;19;20402;-71
2023/01/31 08:40:18;;;;;;;12.93;7.78;;;;;;;-0.55;81.00;97647.72;7351860;19;20351;-73
2023/01/31 08:42:43;;;;;;;11.80;7.35;;;;;;;-0.58;80.77;97632.22;7347476;19;20482;-72
2023/01/31 08:45:08;;;;;;;14.82;9.13;;;;;;;-0.63;80.81;97632.47;7357692;19;20359;-73
2023/01/31 08:47:32;;;;;;;13.40;8.10;;;;;;;-0.60;80.81;97634.06;7367838;19;20015;-72
2023/01/31 08:49:57;;;;;;;13.88;8.15;;;;;;;-0.54;80.63;97636.31;7372416;19;20026;-71
2023/01/31 08:52:22;;;;;;;13.20;7.00;;;;;;;-0.56;80.60;97632.94;7370909;19;20047;-70
2023/01/31 08:54:46;;;;;;;17.17;9.23;;;;;;;-0.56;80.54;97639.03;7367745;19;20043;-71
2023/01/31 08:57:11;;;;;;;14.20;7.45;;;;;;;-0.43;80.36;97641.75;7371141;19;20023;-71
2023/01/31 08:59:36;;;;;;;13.57;8.68;;;;;;;-0.44;80.31;97646.16;7351341;19;20038;-72
2023/01/31 09:02:01;;;;;;;15.32;8.15;;;;;;;-0.39;80.22;97644.13;7355402;19;20046;-71
2023/01/31 09:04:25;;;;;;;12.18;7.05;;;;;;;-0.39;80.37;97643.28;7367971;19;20018;-70
2023/01/31 09:06:50;;;;;;;14.80;9.27;;;;;;;-0.36;80.32;97635.25;7371237;19;20014;-72
2023/01/31 09:09:15;;;;;;;13.23;7.40;;;;;;;-0.35;80.32;97641.31;7373863;19;20032;-72
2023/01/31 09:11:40;;;;;;;13.48;8.07;;;;;;;-0.33;80.00;97645.50;7373961;19;20019;-70
2023/01/31 09:14:04;;;;;;;14.32;8.50;;;;;;;-0.29;79.81;97646.19;7373898;19;20023;-70
2023/01/31 09:16:29;;;;;;;13.57;7.88;;;;;;;-0.28;79.83;97640.00;7375236;19;20002;-69
2023/01/31 09:18:54;;;;;;;11.50;7.22;;;;;;;-0.25;79.93;97637.22;7346054;19;20477;-71
2023/01/31 09:21:20;;;;;;;14.68;8.13;;;;;;;-0.31;80.07;97645.44;7343501;19;20021;-71
2023/01/31 09:23:47;;;;;;;14.52;7.35;;;;;;;-0.34;80.07;97635.16;7343543;19;20487;-72
2023/01/31 09:26:12;;;;;;;12.70;8.88;;;;;;;-0.25;80.07;97630.22;7344018;19;20011;-72
2023/01/31 09:28:37;;;;;;;13.07;8.52;;;;;;;-0.16;79.82;97644.53;7342115;19;20343;-71
2023/01/31 09:31:07;;;;;;;14.13;9.23;;;;;;;-0.24;79.61;97626.66;7342651;19;20013;-72
2023/01/31 09:33:33;;;;;;;15.07;8.48;;;;;;;-0.15;79.69;97622.63;7345926;19;20011;-71
2023/01/31 09:36:05;;;;;;;12.32;7.45;;;;;;;-0.06;79.36;97629.94;7344214;19;20023;-74
2023/01/31 09:38:30;;;;;;;13.55;7.60;;;;;;;-0.06;79.31;97632.53;7347248;19;20458;-73
2023/01/31 09:40:58;;;;;;;15.10;9.15;;;;;;;-0.02;79.04;97636.69;7344983;19;20556;-75
2023/01/31 09:43:30;;;;;;;15.38;7.68;;;;;;;0.10;79.21;97635.94;7341920;19;20034;-73
2023/01/31 09:45:59;;;;;;;14.27;8.35;;;;;;;0.14;78.92;97639.19;7342853;19;20018;-74
2023/01/31 09:48:28;;;;;;;12.38;7.43;;;;;;;0.19;79.07;97637.97;7344961;19;20033;-74
2023/01/31 09:50:55;;;;;;;12.95;9.07;;;;;;;-0.02;78.64;97636.69;7347859;19;20055;-73
2023/01/31 09:53:21;;;;;;;14.57;7.32;;;;;;;0.13;78.86;97633.09;7345058;19;20028;-73
2023/01/31 09:56:19;;;;;;;12.13;6.60;;;;;;;0.22;78.79;97635.19;7345808;19;20018;-73
2023/01/31 09:59:07;;;;;;;15.00;8.25;;;;;;;0.28;78.42;97642.66;7343730;19;20027;-73
2023/01/31 10:01:44;;;;;;;14.13;8.73;;;;;;;0.27;78.17;97637.50;7341016;19;20009;-72
2023/01/31 10:04:46;;;;;;;13.82;7.90;;;;;;;0.29;78.12;97636.47;7344432;19;20014;-72
2023/01/31 10:07:20;;;;;;;11.50;7.68;;;;;;;0.33;78.06;97639.75;7342472;19;20025;-74
2023/01/31 10:09:53;;;;;;;16.92;9.13;;;;;;;0.23;77.57;97641.22;7342883;19;20011;-72
2023/01/31 10:12:28;;;;;;;18.05;8.70;;;;;;;0.20;77.88;97639.66;7349476;19;20015;-73
2023/01/31 10:15:05;;;;;;;14.05;6.65;;;;;;;0.34;77.82;97639.63;7352851;19;20416;-72
2023/01/31 10:17:42;;;;;;;15.30;7.43;;;;;;;0.43;78.04;97653.97;7351448;19;20022;-74
2023/01/31 10:20:20;;;;;;;14.77;7.63;;;;;;;0.36;78.01;97650.84;7349463;19;20019;-72
2023/01/31 10:22:54;;;;;;;13.23;7.13;;;;;;;0.33;77.87;97651.06;7351688;19;20041;-74
2023/01/31 10:25:37;;;;;;;9.10;6.10;;;;;;;0.49;78.02;97658.81;7349067;19;20365;-73
2023/01/31 10:28:23;;;;;;;10.85;6.95;;;;;;;0.43;77.79;97660.97;7349507;19;20474;-72
2023/01/31 10:31:00;;;;;;;14.63;7.28;;;;;;;0.41;77.89;97660.22;7345503;19;20021;-72
2023/01/31 10:33:38;;;;;;;11.70;6.55;;;;;;;0.44;77.58;97660.88;7350901;19;20476;-72
2023/01/31 10:36:25;;;;;;;15.07;7.93;;;;;;;0.45;77.82;97664.34;7348877;19;20026;-72
2023/01/31 10:39:01;;;;;;;14.88;9.50;;;;;;;0.28;77.61;97662.75;7346499;19;20353;-73
2023/01/31 10:42:01;;;;;;;14.30;7.57;;;;;;;0.34;77.63;97673.69;7348396;19;20464;-73
2023/01/31 10:44:54;;;;;;;14.82;8.32;;;;;;;0.49;77.82;97668.44;7343582;19;20362;-73
2023/01/31 10:47:26;;;;;;;12.35;7.28;;;;;;;0.35;77.45;97666.69;7344067;19;20007;-73
2023/01/31 10:49:51;;;;;;;13.98;7.72;;;;;;;0.28;77.57;97652.28;7345251;19;20457;-74
2023/01/31 10:52:27;;;;;;;15.18;8.68;;;;;;;0.14;77.78;97655.75;7347861;19;20358;-72
2023/01/31 10:55:17;;;;;;;16.10;9.27;;;;;;;0.26;77.90;97655.00;7344778;19;20031;-72
2023/01/31 10:57:41;;;;;;;11.45;6.97;;;;;;;0.37;77.65;97651.72;7344392;19;20011;-73
2023/01/31 11:00:16;;;;;;;12.60;8.25;;;;;;;0.49;77.63;97665.81;7345329;19;20014;-73
2023/01/31 11:02:40;;;;;;;12.10;6.22;;;;;;;0.54;77.46;97664.63;7343490;19;20022;-72
2023/01/31 11:05:05;;;;;;;12.00;7.82;;;;;;;0.54;77.25;97675.09;7344691;19;20058;-73
2023/01/31 11:07:31;;;;;;;12.43;7.63;;;;;;;0.47;77.15;97672.94;7345860;19;20018;-72
2023/01/31 11:09:57;;;;;;;13.30;7.63;;;;;;;0.52;77.22;97669.09;7343480;19;20121;-73
2023/01/31 11:12:50;;;;;;;14.52;7.70;;;;;;;0.41;77.22;97675.97;7345418;19;20535;-74
2023/01/31 11:15:18;;;;;;;14.23;7.80;;;;;;;0.38;77.28;97674.34;7343099;19;20018;-72
2023/01/31 11:17:45;;;;;;;14.95;7.95;;;;;;;0.42;77.35;97670.63;7344735;19;20118;-73
2023/01/31 11:20:21;;;;;;;11.85;7.03;;;;;;;0.53;77.41;97673.41;7343203;19;20011;-73
2023/01/31 11:22:46;;;;;;;13.68;7.90;;;;;;;0.35;77.55;97674.53;7343501;19;20753;-74
2023/01/31 11:25:19;;;;;;;13.63;7.90;;;;;;;0.38;77.52;97670.91;7349824;19;20476;-74
2023/01/31 11:27:44;;;;;;;11.07;7.72;;;;;;;0.40;77.37;97679.50;7358918;19;20022;-73
2023/01/31 11:30:21;;;;;;;15.43;8.57;;;;;;;0.44;77.48;97667.91;7347731;19;20019;-73
2023/01/31 11:32:47;;;;;;;16.75;9.65;;;;;;;0.34;77.22;97659.75;7347481;19;20014;-73
2023/01/31 11:35:12;;;;;;;14.00;6.97;;;;;;;0.49;77.30;97668.44;7348146;19;20043;-74
2023/01/31 11:37:55;;;;;;;11.20;7.43;;;;;;;0.40;77.07;97667.25;7346429;19;20023;-72
2023/01/31 11:40:21;;;;;;;15.18;9.35;;;;;;;0.43;77.11;97663.59;7349389;19;20370;-66